Tallulah, Louisiana
Current Conditions -  °F | °C
As of 11:53 AM on Thursday 29 Jan 2015 (Local Time) from KTVR Reporting Station
Clear Clear  
Wind Chill: 70°   Ceiling: Unl
Heat Index: 70°   Visibility: 10mi
Dew Point: 50°   Wind: 13mph
Humidity: 49%   Direction: 240°WSW
Pressure: 30.19"   Gusts: 23mph
Location:  32.41°N, 91.19°W
Report Text: KTVR 291753Z AUTO 24011G20KT 210V280 10SM CLR 21/10 A3019 RMK AO2 SLP230 T02110100 10211 20100 58003
Loading
Personal Weather Stations






























Interactive Weather Map New forecast layout! Learn more

10-Day Weather Forecast

Advertisements
Track Severe Weather on mobile